Time;durP1;ratioP1;P1;durP2;ratioP2;P2;SDS_P1;SDS_P2;PMS_P1;PMS_P2;Temp;Humidity;BMP_temperature;BMP_pressure;BME280_temperature;BME280_humidity;BME280_pressure;Samples;Min_cycle;Max_cycle;Signal;HPM_P1;HPM_P2
2022/01/28 00:00:30;;;;;;;29.63;18.73;;;;;;;;;;4917311;28;20201;-74
2022/01/28 00:05:29;;;;;;;24.93;15.53;;;;;;;;;;4954754;28;20190;-75
2022/01/28 00:07:56;;;;;;;23.63;15.97;;;;;;;;;;4926266;29;20292;-75
2022/01/28 00:10:23;;;;;;;21.33;14.37;;;;;;;;;;4926717;29;20216;-77
2022/01/28 00:39:46;;;;;;;22.13;14.87;;;;;;;;;;4939696;28;20359;-77
2022/01/28 00:42:12;;;;;;;21.97;14.97;;;;;;;;;;4931132;28;20188;-75
2022/01/28 00:44:38;;;;;;;21.10;14.37;;;;;;;;;;4936120;28;20224;-77
2022/01/28 00:47:05;;;;;;;23.73;15.43;;;;;;;;;;4936072;28;20187;-73
2022/01/28 00:49:31;;;;;;;20.27;14.40;;;;;;;;;;4951226;28;20189;-76
2022/01/28 00:51:58;;;;;;;19.50;13.40;;;;;;;;;;4937003;28;20240;-74
2022/01/28 00:54:24;;;;;;;22.63;14.33;;;;;;;;;;4922583;29;20225;-74
2022/01/28 00:56:51;;;;;;;22.60;15.13;;;;;;;;;;4919964;29;20185;-75
2022/01/28 00:59:17;;;;;;;21.60;14.63;;;;;;;;;;4951998;28;20184;-74
2022/01/28 01:01:44;;;;;;;26.97;17.17;;;;;;;;;;4938183;29;20197;-74
2022/01/28 01:04:11;;;;;;;27.93;17.23;;;;;;;;;;4936428;29;20319;-75
2022/01/28 01:06:37;;;;;;;24.57;15.80;;;;;;;;;;4933702;28;20215;-74
2022/01/28 01:09:04;;;;;;;26.73;16.53;;;;;;;;;;4951291;28;20280;-75
2022/01/28 01:11:32;;;;;;;25.23;16.27;;;;;;;;;;4952735;29;20213;-74
2022/01/28 01:13:59;;;;;;;29.70;18.00;;;;;;;;;;4937132;29;20201;-76
2022/01/28 01:16:41;;;;;;;21.57;14.43;;;;;;;;;;4937220;28;20276;-74
2022/01/28 01:21:38;;;;;;;28.13;17.10;;;;;;;;;;4941664;28;20204;-74
2022/01/28 01:24:05;;;;;;;27.87;17.03;;;;;;;;;;4934901;28;20214;-76
2022/01/28 01:26:34;;;;;;;34.43;19.90;;;;;;;;;;4933359;29;20563;-74
2022/01/28 01:29:01;;;;;;;26.93;16.23;;;;;;;;;;4951382;28;20236;-73
2022/01/28 01:31:28;;;;;;;25.47;16.27;;;;;;;;;;4923302;29;20209;-74
2022/01/28 01:34:14;;;;;;;26.83;17.00;;;;;;;;;;4922580;29;20586;-75
2022/01/28 01:36:40;;;;;;;24.23;15.23;;;;;;;;;;4937852;29;20192;-74
2022/01/28 01:39:08;;;;;;;22.57;15.30;;;;;;;;;;4941227;28;20185;-74
2022/01/28 01:41:40;;;;;;;24.60;15.97;;;;;;;;;;4920987;28;20216;-74
2022/01/28 01:44:24;;;;;;;23.93;15.60;;;;;;;;;;4938144;29;20215;-74
2022/01/28 01:52:28;;;;;;;26.87;17.00;;;;;;;;;;4939778;29;20680;-75
2022/01/28 01:54:54;;;;;;;24.53;16.50;;;;;;;;;;4939678;29;20213;-76
2022/01/28 01:57:21;;;;;;;29.10;17.17;;;;;;;;;;4924389;28;20196;-77
2022/01/28 01:59:48;;;;;;;29.70;19.10;;;;;;;;;;4938915;29;20248;-76
2022/01/28 02:02:14;;;;;;;34.10;20.77;;;;;;;;;;4956053;28;20197;-76
2022/01/28 02:04:41;;;;;;;31.87;19.40;;;;;;;;;;4939678;28;20721;-76
2022/01/28 02:07:08;;;;;;;26.97;17.60;;;;;;;;;;4940434;28;20197;-76
2022/01/28 02:09:35;;;;;;;27.40;17.57;;;;;;;;;;4942400;29;20200;-74
2022/01/28 02:12:01;;;;;;;31.23;18.00;;;;;;;;;;4943456;29;20213;-76
2022/01/28 02:14:28;;;;;;;29.23;17.63;;;;;;;;;;4938348;29;20219;-76
2022/01/28 02:16:55;;;;;;;24.63;15.80;;;;;;;;;;4924236;29;20197;-76
2022/01/28 02:19:21;;;;;;;24.80;16.27;;;;;;;;;;4941183;29;20224;-76
2022/01/28 02:21:51;;;;;;;23.90;15.20;;;;;;;;;;4923533;29;20232;-76
2022/01/28 02:24:25;;;;;;;20.80;14.47;;;;;;;;;;4935477;29;20201;-76
2022/01/28 02:26:51;;;;;;;22.30;14.73;;;;;;;;;;4955469;28;20197;-76
2022/01/28 02:29:27;;;;;;;25.47;15.97;;;;;;;;;;4952747;28;20631;-75
2022/01/28 02:31:54;;;;;;;23.13;15.33;;;;;;;;;;4952854;29;20224;-76
2022/01/28 02:34:20;;;;;;;25.57;16.37;;;;;;;;;;4954042;28;20665;-75
2022/01/28 02:36:46;;;;;;;23.63;15.97;;;;;;;;;;4956537;28;20182;-76
2022/01/28 02:39:13;;;;;;;22.33;14.87;;;;;;;;;;4947758;28;20654;-77
2022/01/28 02:41:43;;;;;;;20.83;14.40;;;;;;;;;;4956199;28;20189;-76
2022/01/28 02:47:05;;;;;;;21.57;14.87;;;;;;;;;;4953950;28;20204;-76
2022/01/28 02:49:36;;;;;;;23.47;16.30;;;;;;;;;;4953034;28;20708;-75
2022/01/28 02:52:03;;;;;;;21.63;14.43;;;;;;;;;;4946426;28;20594;-76
2022/01/28 02:54:39;;;;;;;22.73;15.83;;;;;;;;;;4957966;28;20204;-78
2022/01/28 02:57:06;;;;;;;23.63;15.57;;;;;;;;;;4955270;28;20559;-77
2022/01/28 02:59:32;;;;;;;25.67;15.97;;;;;;;;;;4951043;28;20197;-76
2022/01/28 03:01:59;;;;;;;22.73;14.93;;;;;;;;;;4953747;28;20544;-76
2022/01/28 03:07:10;;;;;;;21.33;14.47;;;;;;;;;;4953742;28;20228;-77
2022/01/28 03:12:18;;;;;;;26.17;15.57;;;;;;;;;;4953024;28;20193;-76
2022/01/28 03:15:05;;;;;;;23.27;14.43;;;;;;;;;;4954246;28;20205;-76
2022/01/28 03:22:46;;;;;;;22.90;14.60;;;;;;;;;;4950682;28;20279;-76
2022/01/28 03:25:13;;;;;;;21.40;14.43;;;;;;;;;;4952226;28;20185;-77
2022/01/28 03:27:50;;;;;;;21.13;13.63;;;;;;;;;;4954789;28;20205;-77
2022/01/28 03:30:16;;;;;;;20.63;13.57;;;;;;;;;;4935777;29;20221;-75
2022/01/28 03:32:42;;;;;;;23.03;14.60;;;;;;;;;;4947850;28;20240;-75
2022/01/28 03:35:10;;;;;;;21.93;14.17;;;;;;;;;;4952527;28;20192;-75
2022/01/28 03:37:37;;;;;;;19.63;13.13;;;;;;;;;;4952123;28;21416;-75
2022/01/28 03:40:06;;;;;;;21.23;14.37;;;;;;;;;;4949096;28;20265;-76
2022/01/28 03:42:33;;;;;;;20.20;13.53;;;;;;;;;;4955240;28;20189;-75
2022/01/28 03:44:59;;;;;;;19.00;13.07;;;;;;;;;;4953787;28;20213;-74
2022/01/28 03:47:26;;;;;;;18.03;12.97;;;;;;;;;;4959141;28;20193;-76
2022/01/28 03:49:52;;;;;;;20.10;13.53;;;;;;;;;;4949719;28;20189;-77
2022/01/28 03:52:19;;;;;;;19.00;12.93;;;;;;;;;;4952829;28;20189;-76
2022/01/28 03:54:45;;;;;;;22.20;15.37;;;;;;;;;;4944062;28;20205;-75
2022/01/28 03:57:11;;;;;;;19.90;13.33;;;;;;;;;;4960740;28;20269;-76
2022/01/28 03:59:38;;;;;;;20.77;13.70;;;;;;;;;;4944381;28;20752;-76
2022/01/28 04:02:06;;;;;;;21.17;13.47;;;;;;;;;;4948401;28;20185;-76
2022/01/28 04:12:35;;;;;;;19.67;13.60;;;;;;;;;;4946699;28;20210;-76
2022/01/28 04:15:22;;;;;;;18.60;13.47;;;;;;;;;;4949667;28;21611;-77
2022/01/28 04:17:48;;;;;;;20.80;13.30;;;;;;;;;;4951894;28;20185;-76
2022/01/28 04:20:15;;;;;;;21.00;14.60;;;;;;;;;;4952274;28;20264;-75
2022/01/28 04:22:41;;;;;;;21.77;13.57;;;;;;;;;;4956842;28;20189;-76
2022/01/28 04:25:08;;;;;;;21.40;14.27;;;;;;;;;;4949977;28;20181;-78
2022/01/28 04:27:34;;;;;;;21.50;13.83;;;;;;;;;;4951873;28;20192;-77
2022/01/28 04:30:01;;;;;;;22.37;14.30;;;;;;;;;;4953904;28;20189;-76
2022/01/28 04:32:29;;;;;;;19.77;13.50;;;;;;;;;;4961185;28;20189;-76
2022/01/28 04:34:58;;;;;;;20.43;14.07;;;;;;;;;;4951204;28;20216;-76
2022/01/28 04:37:40;;;;;;;20.80;13.67;;;;;;;;;;4956052;28;20276;-76
2022/01/28 04:40:25;;;;;;;20.43;14.47;;;;;;;;;;4950581;28;20653;-76
2022/01/28 04:43:03;;;;;;;20.60;14.47;;;;;;;;;;4959518;28;20189;-76
2022/01/28 04:48:46;;;;;;;18.83;13.30;;;;;;;;;;4949172;28;20207;-75
2022/01/28 04:51:49;;;;;;;23.73;13.43;;;;;;;;;;4939349;28;20212;-75
2022/01/28 04:57:05;;;;;;;23.07;14.40;;;;;;;;;;4951939;28;20675;-76
2022/01/28 05:00:03;;;;;;;23.43;14.10;;;;;;;;;;4950503;28;20275;-75
2022/01/28 05:05:42;;;;;;;19.23;13.03;;;;;;;;;;4944824;28;20219;-74
2022/01/28 05:13:26;;;;;;;18.60;12.50;;;;;;;;;;4951140;28;20185;-74
2022/01/28 05:24:19;;;;;;;18.60;12.30;;;;;;;;;;4953629;28;20626;-75
2022/01/28 05:27:04;;;;;;;21.47;13.13;;;;;;;;;;4965183;28;20200;-77
2022/01/28 05:29:30;;;;;;;20.57;13.77;;;;;;;;;;4951194;29;20565;-75
2022/01/28 05:31:56;;;;;;;21.13;14.30;;;;;;;;;;4955825;28;20316;-76
2022/01/28 05:34:27;;;;;;;20.10;14.03;;;;;;;;;;4954121;29;20236;-74
2022/01/28 05:36:54;;;;;;;24.60;15.27;;;;;;;;;;4954230;28;20186;-75
2022/01/28 05:39:20;;;;;;;20.83;14.17;;;;;;;;;;4950703;28;20189;-74
2022/01/28 05:41:46;;;;;;;23.43;14.67;;;;;;;;;;4955583;28;20200;-74
2022/01/28 05:44:12;;;;;;;20.43;13.90;;;;;;;;;;4954553;28;20950;-74
2022/01/28 05:46:39;;;;;;;19.53;13.53;;;;;;;;;;4952274;28;20186;-74
2022/01/28 05:49:05;;;;;;;24.00;14.07;;;;;;;;;;4950545;28;20221;-74
2022/01/28 05:51:31;;;;;;;21.20;13.10;;;;;;;;;;4953675;28;20422;-74
2022/01/28 05:53:58;;;;;;;18.47;13.03;;;;;;;;;;4951991;29;20204;-76
2022/01/28 05:56:25;;;;;;;18.87;13.07;;;;;;;;;;4955407;28;20676;-75
2022/01/28 05:58:52;;;;;;;18.73;12.50;;;;;;;;;;4954559;28;20189;-75
2022/01/28 06:01:18;;;;;;;23.03;15.70;;;;;;;;;;4951567;28;20185;-76
2022/01/28 06:03:44;;;;;;;23.03;14.33;;;;;;;;;;4954607;28;20212;-75
2022/01/28 06:06:18;;;;;;;20.90;14.40;;;;;;;;;;4947489;28;20185;-74
2022/01/28 06:08:49;;;;;;;22.90;14.97;;;;;;;;;;4952510;29;20460;-77
2022/01/28 06:11:15;;;;;;;25.13;15.43;;;;;;;;;;4954296;28;20217;-76
2022/01/28 06:13:42;;;;;;;20.77;14.10;;;;;;;;;;4952117;28;20260;-76
2022/01/28 06:16:09;;;;;;;21.70;14.83;;;;;;;;;;4961139;28;20215;-77
2022/01/28 06:18:36;;;;;;;25.47;14.57;;;;;;;;;;4949251;29;20284;-76
2022/01/28 06:21:02;;;;;;;22.00;14.30;;;;;;;;;;4950079;28;20201;-76
2022/01/28 06:23:29;;;;;;;21.53;13.37;;;;;;;;;;4951605;28;21391;-76
2022/01/28 06:25:55;;;;;;;18.97;13.30;;;;;;;;;;4953405;28;20276;-77
2022/01/28 06:28:21;;;;;;;20.63;13.43;;;;;;;;;;4953840;29;20264;-76
2022/01/28 06:30:47;;;;;;;21.50;12.60;;;;;;;;;;4951429;28;20228;-76
2022/01/28 06:33:14;;;;;;;21.23;13.70;;;;;;;;;;4952162;28;20736;-77
2022/01/28 06:35:41;;;;;;;21.33;13.13;;;;;;;;;;4953745;28;20259;-76
2022/01/28 06:38:07;;;;;;;19.40;12.17;;;;;;;;;;4952413;28;20446;-75
2022/01/28 06:40:33;;;;;;;19.77;11.87;;;;;;;;;;4952306;29;20259;-75
2022/01/28 06:43:01;;;;;;;18.17;12.37;;;;;;;;;;4951557;28;20643;-77
2022/01/28 06:45:27;;;;;;;18.97;13.20;;;;;;;;;;4953211;29;20731;-77
2022/01/28 06:47:53;;;;;;;21.20;12.53;;;;;;;;;;4953304;28;20267;-73
2022/01/28 06:50:19;;;;;;;17.50;11.37;;;;;;;;;;4951000;28;20311;-74
2022/01/28 06:52:46;;;;;;;19.33;11.57;;;;;;;;;;4951572;28;20489;-75
2022/01/28 06:55:14;;;;;;;17.13;11.43;;;;;;;;;;4950317;28;20953;-78
2022/01/28 06:57:40;;;;;;;17.00;11.80;;;;;;;;;;4951147;28;20189;-75
2022/01/28 07:00:08;;;;;;;17.50;11.20;;;;;;;;;;4949657;28;20177;-76
2022/01/28 07:02:35;;;;;;;17.73;11.43;;;;;;;;;;4951135;28;20826;-77
2022/01/28 07:05:01;;;;;;;16.50;11.87;;;;;;;;;;4947158;28;20224;-76
2022/01/28 07:07:27;;;;;;;19.97;12.97;;;;;;;;;;4949174;29;20720;-75
2022/01/28 07:09:54;;;;;;;22.43;12.57;;;;;;;;;;4950761;29;20217;-74
2022/01/28 07:12:21;;;;;;;19.77;12.93;;;;;;;;;;4945866;28;20245;-72
2022/01/28 07:14:47;;;;;;;18.80;11.87;;;;;;;;;;4948997;28;20707;-72
2022/01/28 07:17:14;;;;;;;20.30;12.70;;;;;;;;;;4955474;28;20181;-71
2022/01/28 07:19:40;;;;;;;21.33;12.70;;;;;;;;;;4949675;29;20192;-71
2022/01/28 07:22:06;;;;;;;19.73;13.93;;;;;;;;;;4949450;28;20720;-72
2022/01/28 07:24:33;;;;;;;18.13;12.47;;;;;;;;;;4952442;28;20209;-72
2022/01/28 07:26:59;;;;;;;19.70;12.70;;;;;;;;;;4951982;28;20185;-72
2022/01/28 07:29:29;;;;;;;20.53;13.70;;;;;;;;;;4950449;28;20803;-72
2022/01/28 07:31:55;;;;;;;21.73;14.43;;;;;;;;;;4953307;28;20221;-71
2022/01/28 07:34:21;;;;;;;22.10;14.33;;;;;;;;;;4948306;29;20211;-73
2022/01/28 07:36:48;;;;;;;23.03;14.70;;;;;;;;;;4949661;28;20173;-73
2022/01/28 07:39:14;;;;;;;19.77;13.33;;;;;;;;;;4949973;28;20708;-73
2022/01/28 07:41:40;;;;;;;22.87;14.33;;;;;;;;;;4947862;28;20194;-72
2022/01/28 07:44:07;;;;;;;22.27;13.87;;;;;;;;;;4951311;28;20239;-74
2022/01/28 07:46:33;;;;;;;20.97;13.70;;;;;;;;;;4949501;29;20190;-75
2022/01/28 07:49:00;;;;;;;21.90;13.40;;;;;;;;;;4952724;29;20193;-76
2022/01/28 07:51:26;;;;;;;21.03;12.40;;;;;;;;;;4947115;28;20360;-77
2022/01/28 07:53:53;;;;;;;18.20;11.83;;;;;;;;;;4948205;28;20201;-77
2022/01/28 07:56:21;;;;;;;16.77;11.57;;;;;;;;;;4950327;29;20633;-77
2022/01/28 07:58:47;;;;;;;17.73;11.70;;;;;;;;;;4945876;28;20283;-77
2022/01/28 08:01:14;;;;;;;18.23;11.60;;;;;;;;;;4943249;28;20201;-77
2022/01/28 08:03:40;;;;;;;17.60;10.73;;;;;;;;;;4945817;28;20567;-77
2022/01/28 08:06:06;;;;;;;18.73;11.27;;;;;;;;;;4943282;29;20193;-76
2022/01/28 08:08:32;;;;;;;16.87;11.03;;;;;;;;;;4944340;28;20211;-79
2022/01/28 08:10:58;;;;;;;15.60;11.40;;;;;;;;;;4945590;28;20213;-77
2022/01/28 08:13:24;;;;;;;16.27;10.60;;;;;;;;;;4949119;28;20307;-77
2022/01/28 08:15:50;;;;;;;16.03;10.90;;;;;;;;;;4945818;29;20208;-77
2022/01/28 08:18:16;;;;;;;17.13;10.80;;;;;;;;;;4946157;28;20197;-77
2022/01/28 08:20:46;;;;;;;15.53;10.27;;;;;;;;;;4942664;29;20645;-77
2022/01/28 08:23:14;;;;;;;17.47;10.80;;;;;;;;;;4942053;28;20613;-77
2022/01/28 08:25:40;;;;;;;17.00;10.80;;;;;;;;;;4945356;28;20181;-77
2022/01/28 08:28:06;;;;;;;18.10;10.83;;;;;;;;;;4951620;28;20609;-77
2022/01/28 08:30:37;;;;;;;16.40;9.10;;;;;;;;;;4934936;28;20215;-78
2022/01/28 08:33:04;;;;;;;18.07;10.30;;;;;;;;;;4948141;28;20252;-80
2022/01/28 08:35:33;;;;;;;14.63;9.17;;;;;;;;;;4946665;28;20205;-77
2022/01/28 08:37:59;;;;;;;14.90;10.07;;;;;;;;;;4950547;28;20720;-77
2022/01/28 08:40:26;;;;;;;13.97;8.97;;;;;;;;;;4951106;29;20180;-77
2022/01/28 08:42:52;;;;;;;14.47;9.73;;;;;;;;;;4950257;29;20240;-76
2022/01/28 08:45:18;;;;;;;14.03;9.13;;;;;;;;;;4951728;28;20189;-77
2022/01/28 08:47:45;;;;;;;15.67;9.50;;;;;;;;;;4951443;29;20189;-77
2022/01/28 08:50:11;;;;;;;14.13;9.03;;;;;;;;;;4952412;28;20193;-77
2022/01/28 08:52:37;;;;;;;14.97;8.97;;;;;;;;;;4951752;28;20585;-77
2022/01/28 08:55:04;;;;;;;12.23;9.10;;;;;;;;;;4950289;28;20227;-77
2022/01/28 08:57:30;;;;;;;13.83;8.93;;;;;;;;;;4951221;29;20177;-78
2022/01/28 08:59:56;;;;;;;12.90;8.80;;;;;;;;;;4951157;29;20181;-78
2022/01/28 09:02:23;;;;;;;17.00;9.63;;;;;;;;;;4951664;28;20189;-77
2022/01/28 09:04:49;;;;;;;14.67;8.53;;;;;;;;;;4951947;28;20201;-77
2022/01/28 09:07:18;;;;;;;13.90;8.50;;;;;;;;;;4951022;29;20197;-77
2022/01/28 09:09:48;;;;;;;15.93;8.97;;;;;;;;;;4950714;29;20196;-79
2022/01/28 09:14:57;;;;;;;12.70;8.20;;;;;;;;;;4951655;28;20299;-77
2022/01/28 09:17:24;;;;;;;13.97;8.83;;;;;;;;;;4951062;28;20264;-77
2022/01/28 09:19:50;;;;;;;20.50;9.00;;;;;;;;;;4952378;28;20177;-77
2022/01/28 09:22:16;;;;;;;15.10;7.20;;;;;;;;;;4952024;28;20188;-74
2022/01/28 09:24:43;;;;;;;12.50;5.20;;;;;;;;;;4949872;28;20213;-75
2022/01/28 09:27:09;;;;;;;12.03;4.73;;;;;;;;;;4951967;28;20181;-74
2022/01/28 09:29:35;;;;;;;10.87;4.43;;;;;;;;;;4951409;29;20945;-74
2022/01/28 09:32:01;;;;;;;11.37;4.30;;;;;;;;;;4954617;28;20205;-74
2022/01/28 09:34:27;;;;;;;12.23;4.57;;;;;;;;;;4949978;28;20230;-76
2022/01/28 09:36:54;;;;;;;10.30;4.20;;;;;;;;;;4950583;28;20654;-75
2022/01/28 09:39:20;;;;;;;10.33;3.60;;;;;;;;;;4947159;29;20173;-76
2022/01/28 09:41:47;;;;;;;13.07;3.47;;;;;;;;;;4951343;28;20200;-76
2022/01/28 09:44:16;;;;;;;8.90;3.67;;;;;;;;;;4949154;28;20213;-79
2022/01/28 09:46:42;;;;;;;11.20;3.43;;;;;;;;;;4950752;29;20196;-77
2022/01/28 09:49:08;;;;;;;16.40;3.77;;;;;;;;;;4951883;28;20673;-77
2022/01/28 09:51:35;;;;;;;9.40;3.40;;;;;;;;;;4949773;28;20205;-77
2022/01/28 09:54:01;;;;;;;8.63;3.40;;;;;;;;;;4950821;28;20308;-76
2022/01/28 09:56:29;;;;;;;7.13;3.70;;;;;;;;;;4951112;28;20268;-76
2022/01/28 09:58:55;;;;;;;7.97;3.50;;;;;;;;;;4948789;28;20209;-77
2022/01/28 10:01:21;;;;;;;10.27;4.77;;;;;;;;;;4951444;29;20186;-77
2022/01/28 10:03:58;;;;;;;11.77;4.90;;;;;;;;;;4949462;28;20219;-77
2022/01/28 10:06:31;;;;;;;12.27;5.00;;;;;;;;;;4935345;29;20197;-77
2022/01/28 10:09:01;;;;;;;10.77;4.80;;;;;;;;;;4953904;28;20192;-77
2022/01/28 10:11:28;;;;;;;12.73;4.87;;;;;;;;;;4955175;28;20209;-77
2022/01/28 10:13:54;;;;;;;9.30;4.87;;;;;;;;;;4957041;28;20267;-76
2022/01/28 10:16:22;;;;;;;11.90;4.23;;;;;;;;;;4943960;28;20213;-78
2022/01/28 10:18:53;;;;;;;12.07;5.30;;;;;;;;;;4954049;29;20217;-76
2022/01/28 10:21:19;;;;;;;11.40;4.57;;;;;;;;;;4953239;28;20181;-78
2022/01/28 10:24:01;;;;;;;13.23;4.83;;;;;;;;;;4955510;28;20775;-79
2022/01/28 10:26:37;;;;;;;11.97;4.93;;;;;;;;;;4954657;28;20189;-81
2022/01/28 10:29:14;;;;;;;10.13;3.87;;;;;;;;;;4968668;28;21190;-79
2022/01/28 10:31:42;;;;;;;9.77;4.47;;;;;;;;;;4962120;28;20244;-78
2022/01/28 10:34:29;;;;;;;8.27;4.63;;;;;;;;;;4958115;28;20754;-79
2022/01/28 10:37:07;;;;;;;10.30;3.77;;;;;;;;;;4957798;28;20280;-77
2022/01/28 10:39:38;;;;;;;7.17;3.60;;;;;;;;;;4956710;28;20216;-77
2022/01/28 10:42:05;;;;;;;11.67;4.13;;;;;;;;;;4956720;28;20405;-78
2022/01/28 10:44:32;;;;;;;9.23;3.73;;;;;;;;;;4959522;28;20216;-79
2022/01/28 10:46:59;;;;;;;7.30;3.53;;;;;;;;;;4951703;28;20220;-79
2022/01/28 10:49:33;;;;;;;8.60;3.60;;;;;;;;;;4959089;28;20195;-79
2022/01/28 10:52:05;;;;;;;9.27;3.33;;;;;;;;;;4959214;28;20308;-77
2022/01/28 10:54:31;;;;;;;8.07;3.17;;;;;;;;;;4953470;28;20599;-79
2022/01/28 10:56:58;;;;;;;12.37;3.50;;;;;;;;;;4960330;28;20689;-79
2022/01/28 10:59:27;;;;;;;9.00;3.43;;;;;;;;;;4954651;28;20178;-81
2022/01/28 11:01:54;;;;;;;8.93;3.00;;;;;;;;;;4958165;28;20661;-77
2022/01/28 11:04:21;;;;;;;9.67;2.97;;;;;;;;;;4952635;28;20204;-77
2022/01/28 11:06:47;;;;;;;10.90;3.20;;;;;;;;;;4960232;28;20214;-75
2022/01/28 11:09:15;;;;;;;9.77;2.90;;;;;;;;;;4955717;28;20181;-75
2022/01/28 11:11:41;;;;;;;9.37;2.93;;;;;;;;;;4952260;28;20213;-77
2022/01/28 11:14:07;;;;;;;11.00;2.87;;;;;;;;;;4953190;28;20242;-74
2022/01/28 11:16:34;;;;;;;6.27;2.73;;;;;;;;;;4953372;28;20182;-73
2022/01/28 11:19:01;;;;;;;8.53;2.30;;;;;;;;;;4951884;28;20264;-72
2022/01/28 11:21:33;;;;;;;8.63;2.43;;;;;;;;;;4973391;28;20188;-72
2022/01/28 11:24:22;;;;;;;8.77;2.40;;;;;;;;;;4955377;28;20284;-73
2022/01/28 11:26:55;;;;;;;10.30;2.50;;;;;;;;;;4953616;28;20298;-72
2022/01/28 11:29:26;;;;;;;5.83;1.87;;;;;;;;;;4946647;28;20248;-72
2022/01/28 11:31:54;;;;;;;9.13;1.90;;;;;;;;;;4968414;28;20227;-75
2022/01/28 11:34:20;;;;;;;7.87;1.80;;;;;;;;;;4953029;28;20208;-74
2022/01/28 11:36:46;;;;;;;11.70;2.17;;;;;;;;;;4950535;29;20189;-74
2022/01/28 11:39:28;;;;;;;6.30;1.90;;;;;;;;;;4951392;28;20272;-75
2022/01/28 11:42:10;;;;;;;9.00;2.10;;;;;;;;;;4952109;28;20181;-75
2022/01/28 11:44:51;;;;;;;7.93;3.10;;;;;;;;;;4952142;28;20304;-75
2022/01/28 11:47:22;;;;;;;10.77;3.80;;;;;;;;;;4951795;28;20192;-75
2022/01/28 11:49:58;;;;;;;7.50;3.47;;;;;;;;;;4951595;29;20177;-76
2022/01/28 11:52:32;;;;;;;8.07;3.43;;;;;;;;;;4951370;28;20210;-75
2022/01/28 11:55:17;;;;;;;10.63;3.57;;;;;;;;;;4949087;28;20205;-74
2022/01/28 11:58:01;;;;;;;11.43;4.27;;;;;;;;;;4947065;29;20180;-75
2022/01/28 12:00:41;;;;;;;9.53;3.93;;;;;;;;;;4952524;28;20189;-74
2022/01/28 12:03:21;;;;;;;6.87;3.60;;;;;;;;;;4934094;29;20550;-74
2022/01/28 12:05:47;;;;;;;7.33;3.83;;;;;;;;;;4952435;28;20177;-74
2022/01/28 12:08:14;;;;;;;12.27;3.90;;;;;;;;;;4952457;28;20287;-74
2022/01/28 12:10:43;;;;;;;13.67;4.50;;;;;;;;;;4951890;29;20592;-74
2022/01/28 12:13:13;;;;;;;8.03;3.83;;;;;;;;;;4952941;28;20201;-74
2022/01/28 12:18:53;;;;;;;9.93;4.87;;;;;;;;;;4956739;28;20197;-74
2022/01/28 12:21:29;;;;;;;11.90;4.70;;;;;;;;;;4949228;28;20189;-74
2022/01/28 12:24:15;;;;;;;12.67;4.77;;;;;;;;;;4937191;28;20209;-76
2022/01/28 12:27:00;;;;;;;9.07;4.17;;;;;;;;;;4926339;29;20622;-75
2022/01/28 12:29:30;;;;;;;7.43;4.00;;;;;;;;;;4935623;28;20190;-74
2022/01/28 12:31:57;;;;;;;8.70;4.10;;;;;;;;;;4941632;28;20731;-74
2022/01/28 12:34:24;;;;;;;8.50;4.57;;;;;;;;;;4939652;29;20296;-75
2022/01/28 12:36:50;;;;;;;9.00;5.00;;;;;;;;;;4942555;29;20177;-77
2022/01/28 12:39:24;;;;;;;11.50;4.83;;;;;;;;;;4948934;28;20189;-74
2022/01/28 12:41:55;;;;;;;8.93;4.53;;;;;;;;;;4946425;28;20181;-75
2022/01/28 12:44:22;;;;;;;8.20;4.50;;;;;;;;;;4947354;28;20279;-75
2022/01/28 12:46:57;;;;;;;12.13;4.50;;;;;;;;;;4945692;28;20185;-75
2022/01/28 12:49:24;;;;;;;7.77;3.97;;;;;;;;;;4937014;28;20628;-75
2022/01/28 12:51:54;;;;;;;8.97;4.20;;;;;;;;;;4939401;29;20213;-75
2022/01/28 12:54:29;;;;;;;9.87;4.53;;;;;;;;;;4937562;28;20335;-75
2022/01/28 12:56:55;;;;;;;8.43;4.23;;;;;;;;;;4935613;28;20196;-75
2022/01/28 12:59:21;;;;;;;13.03;4.13;;;;;;;;;;4937543;28;20200;-79
2022/01/28 13:01:57;;;;;;;9.90;4.43;;;;;;;;;;4941318;28;20189;-75
2022/01/28 13:04:36;;;;;;;9.50;4.07;;;;;;;;;;4935979;28;20259;-76
2022/01/28 13:09:49;;;;;;;10.20;4.23;;;;;;;;;;4941855;28;20301;-77
2022/01/28 13:12:22;;;;;;;8.60;4.20;;;;;;;;;;4937906;28;21241;-78
2022/01/28 13:14:49;;;;;;;11.13;3.40;;;;;;;;;;4941825;28;20245;-75
2022/01/28 13:17:18;;;;;;;9.83;3.40;;;;;;;;;;4936216;29;20276;-74
2022/01/28 13:19:52;;;;;;;9.37;2.80;;;;;;;;;;4938413;28;20181;-74
2022/01/28 13:22:25;;;;;;;11.60;2.50;;;;;;;;;;4936902;29;20197;-74
2022/01/28 13:24:52;;;;;;;9.07;2.40;;;;;;;;;;4934748;28;20213;-75
2022/01/28 13:27:19;;;;;;;9.23;2.30;;;;;;;;;;4942224;29;20587;-74
2022/01/28 13:29:49;;;;;;;7.87;2.10;;;;;;;;;;4940376;28;20185;-76
2022/01/28 13:32:29;;;;;;;6.27;2.47;;;;;;;;;;4937066;28;20214;-78
2022/01/28 13:34:56;;;;;;;6.50;2.73;;;;;;;;;;4937441;28;20209;-75
2022/01/28 13:37:38;;;;;;;8.60;2.80;;;;;;;;;;4939078;28;20174;-75
2022/01/28 13:40:11;;;;;;;5.30;2.00;;;;;;;;;;4939244;28;20189;-75
2022/01/28 13:42:38;;;;;;;6.43;2.10;;;;;;;;;;4954724;28;20228;-76
2022/01/28 13:45:05;;;;;;;10.73;2.53;;;;;;;;;;4939103;28;20248;-75
2022/01/28 13:47:47;;;;;;;9.03;2.47;;;;;;;;;;4941088;28;20194;-74
2022/01/28 13:50:22;;;;;;;6.77;2.33;;;;;;;;;;4942026;29;20577;-75
2022/01/28 13:52:52;;;;;;;9.23;2.27;;;;;;;;;;4940439;28;20197;-76
2022/01/28 13:55:32;;;;;;;5.63;1.90;;;;;;;;;;4938935;29;20197;-75
2022/01/28 13:58:05;;;;;;;8.80;2.23;;;;;;;;;;4942162;28;20324;-73
2022/01/28 14:00:38;;;;;;;6.73;2.10;;;;;;;;;;4937476;28;20189;-76
2022/01/28 14:03:04;;;;;;;8.47;2.00;;;;;;;;;;4940185;29;20186;-75
2022/01/28 14:05:49;;;;;;;9.33;2.17;;;;;;;;;;4941862;29;20248;-75
2022/01/28 14:08:16;;;;;;;5.37;1.90;;;;;;;;;;4937628;28;20194;-76
2022/01/28 14:10:42;;;;;;;5.53;2.00;;;;;;;;;;4939009;28;20231;-75
2022/01/28 14:13:22;;;;;;;7.93;2.20;;;;;;;;;;4938431;28;20200;-76
2022/01/28 14:16:13;;;;;;;5.07;2.13;;;;;;;;;;4933373;28;20189;-75
2022/01/28 14:18:39;;;;;;;6.93;2.00;;;;;;;;;;4931702;29;20189;-75
2022/01/28 14:21:05;;;;;;;7.90;2.13;;;;;;;;;;4938343;28;20996;-75
2022/01/28 14:23:41;;;;;;;9.13;1.77;;;;;;;;;;4931433;28;20592;-74
2022/01/28 14:26:09;;;;;;;8.47;1.80;;;;;;;;;;4931170;29;20969;-75
2022/01/28 14:29:19;;;;;;;6.23;2.10;;;;;;;;;;4929434;28;20224;-76
2022/01/28 14:31:30;;;;;;;9.67;1.90;;;;;;;;;;4934001;28;20220;-74
2022/01/28 14:33:56;;;;;;;6.07;1.90;;;;;;;;;;4929876;28;20585;-74
2022/01/28 14:36:22;;;;;;;7.50;2.17;;;;;;;;;;4930060;28;20186;-74
2022/01/28 14:38:49;;;;;;;7.87;2.03;;;;;;;;;;4930746;28;20189;-75
2022/01/28 14:41:16;;;;;;;8.47;2.10;;;;;;;;;;4930627;28;20248;-74
2022/01/28 14:43:42;;;;;;;9.53;2.33;;;;;;;;;;4934214;28;20210;-75
2022/01/28 14:46:09;;;;;;;8.03;2.00;;;;;;;;;;4942468;28;20189;-75
2022/01/28 14:48:35;;;;;;;7.67;2.17;;;;;;;;;;4941229;29;20208;-77
2022/01/28 14:51:01;;;;;;;7.53;2.00;;;;;;;;;;4937535;28;20899;-74
2022/01/28 14:53:28;;;;;;;6.87;1.90;;;;;;;;;;4939442;28;20213;-77
2022/01/28 14:55:55;;;;;;;8.00;2.23;;;;;;;;;;4939757;28;20216;-75
2022/01/28 14:58:21;;;;;;;5.40;1.70;;;;;;;;;;4939563;28;20244;-75
2022/01/28 15:00:47;;;;;;;7.73;2.03;;;;;;;;;;4935325;28;20236;-75
2022/01/28 15:03:14;;;;;;;5.73;1.93;;;;;;;;;;4940872;28;20208;-78
2022/01/28 15:05:40;;;;;;;4.70;1.80;;;;;;;;;;4943210;28;20186;-74
2022/01/28 15:08:09;;;;;;;8.13;2.00;;;;;;;;;;4944946;28;20197;-76
2022/01/28 15:10:36;;;;;;;6.53;2.03;;;;;;;;;;4943052;29;20185;-76
2022/01/28 15:13:04;;;;;;;8.77;2.20;;;;;;;;;;4942866;28;20181;-76
2022/01/28 15:15:30;;;;;;;6.83;2.07;;;;;;;;;;4942719;28;20189;-75
2022/01/28 15:17:56;;;;;;;7.90;2.73;;;;;;;;;;4945088;29;20201;-75
2022/01/28 15:20:27;;;;;;;10.47;2.10;;;;;;;;;;4943266;28;20185;-76
2022/01/28 15:22:54;;;;;;;6.57;2.17;;;;;;;;;;4945981;28;20173;-77
2022/01/28 15:25:20;;;;;;;4.13;1.57;;;;;;;;;;4955575;28;20948;-76
2022/01/28 15:27:49;;;;;;;9.47;2.20;;;;;;;;;;4940967;28;20204;-74
2022/01/28 15:38:02;;;;;;;7.13;1.90;;;;;;;;;;4940448;29;20217;-77
2022/01/28 15:40:29;;;;;;;6.47;2.10;;;;;;;;;;4941904;28;20201;-75
2022/01/28 15:43:00;;;;;;;4.83;1.87;;;;;;;;;;4936488;29;20173;-75
2022/01/28 15:45:29;;;;;;;9.37;1.87;;;;;;;;;;4944882;28;20217;-74
2022/01/28 15:47:55;;;;;;;12.40;4.73;;;;;;;;;;4938332;29;20189;-75
2022/01/28 15:50:22;;;;;;;7.97;3.13;;;;;;;;;;4945712;29;20201;-75
2022/01/28 15:52:48;;;;;;;5.90;2.60;;;;;;;;;;4937199;28;20189;-74
2022/01/28 15:55:17;;;;;;;7.87;3.00;;;;;;;;;;4953003;28;20189;-74
2022/01/28 15:57:44;;;;;;;9.87;4.30;;;;;;;;;;4948527;29;20189;-75
2022/01/28 16:00:11;;;;;;;9.43;4.80;;;;;;;;;;4953660;28;20181;-75
2022/01/28 16:02:43;;;;;;;13.00;4.10;;;;;;;;;;4945369;28;20203;-75
2022/01/28 16:05:09;;;;;;;10.23;3.73;;;;;;;;;;4945117;28;20293;-76
2022/01/28 16:07:36;;;;;;;10.57;4.70;;;;;;;;;;4955262;28;20206;-75
2022/01/28 16:10:07;;;;;;;14.00;6.57;;;;;;;;;;4953047;29;20177;-75
2022/01/28 16:15:18;;;;;;;7.33;2.27;;;;;;;;;;4948769;29;20220;-75
2022/01/28 16:17:44;;;;;;;7.17;2.40;;;;;;;;;;4947259;29;20194;-75
2022/01/28 16:20:11;;;;;;;7.30;2.30;;;;;;;;;;4937379;29;20192;-74